createdAt,value
2019-02-06T00:01:52.879Z,13.53
2019-02-06T00:04:21.774Z,13.93
2019-02-06T00:06:50.516Z,14.40
2019-02-06T00:09:19.240Z,15.20
2019-02-06T00:11:48.101Z,15.07
2019-02-06T00:14:16.820Z,15.53
2019-02-06T00:16:45.639Z,15.50
2019-02-06T00:19:14.446Z,15.77
2019-02-06T00:21:43.150Z,16.80
2019-02-06T00:24:11.879Z,20.67
2019-02-06T00:26:40.673Z,18.37
2019-02-06T00:29:09.403Z,16.87
2019-02-06T00:31:38.128Z,16.77
2019-02-06T00:34:07.680Z,14.37
2019-02-06T00:36:36.480Z,14.60
2019-02-06T00:39:07.783Z,14.83
2019-02-06T00:41:36.569Z,14.10
2019-02-06T00:44:05.289Z,14.17
2019-02-06T00:46:34.113Z,15.43
2019-02-06T00:49:02.920Z,14.70
2019-02-06T00:51:31.812Z,15.20
2019-02-06T00:54:00.543Z,15.10
2019-02-06T00:56:29.423Z,15.53
2019-02-06T00:58:58.147Z,16.47
2019-02-06T01:01:26.866Z,17.97
2019-02-06T01:03:55.694Z,17.50
2019-02-06T01:06:24.593Z,17.17
2019-02-06T01:08:53.312Z,16.80
2019-02-06T01:11:22.098Z,15.97
2019-02-06T01:13:50.827Z,17.67
2019-02-06T01:16:19.559Z,16.93
2019-02-06T01:18:48.331Z,14.80
2019-02-06T01:21:17.052Z,14.00
2019-02-06T01:23:45.944Z,14.73
2019-02-06T01:26:14.848Z,14.20
2019-02-06T01:28:43.575Z,15.87
2019-02-06T01:31:13.600Z,15.43
2019-02-06T01:33:42.479Z,14.83
2019-02-06T01:36:11.335Z,18.80
2019-02-06T01:38:40.055Z,16.70
2019-02-06T01:41:09.354Z,16.73
2019-02-06T01:43:38.083Z,18.17
2019-02-06T01:46:06.803Z,19.60
2019-02-06T01:48:35.674Z,17.63
2019-02-06T01:51:05.848Z,16.47
2019-02-06T01:53:34.583Z,17.33
2019-02-06T01:56:03.934Z,17.13
2019-02-06T01:58:32.658Z,16.93
2019-02-06T02:01:01.470Z,16.33
2019-02-06T02:03:30.437Z,102.10
2019-02-06T02:06:02.353Z,133.07
2019-02-06T02:08:31.725Z,40.57
2019-02-06T02:11:03.728Z,19.90
2019-02-06T02:13:32.447Z,16.03
2019-02-06T02:16:01.186Z,23.00
2019-02-06T02:18:29.949Z,22.30
2019-02-06T02:20:58.671Z,22.00
2019-02-06T02:23:27.485Z,27.37
2019-02-06T02:25:56.836Z,23.20
2019-02-06T02:28:25.582Z,19.37
2019-02-06T02:30:55.279Z,17.27
2019-02-06T02:33:24.414Z,16.87
2019-02-06T02:35:53.161Z,18.37
2019-02-06T02:38:21.908Z,34.20
2019-02-06T02:40:51.159Z,33.67
2019-02-06T02:43:19.899Z,30.07
2019-02-06T02:45:48.649Z,27.70
2019-02-06T02:48:17.503Z,22.30
2019-02-06T02:50:46.268Z,18.50
2019-02-06T02:53:14.986Z,16.53
2019-02-06T02:55:43.838Z,16.07
2019-02-06T02:58:12.557Z,17.20
2019-02-06T03:00:54.897Z,17.33
2019-02-06T03:03:28.338Z,16.20
2019-02-06T03:05:57.069Z,15.87
2019-02-06T03:08:26.414Z,16.07
2019-02-06T03:10:55.140Z,16.93
2019-02-06T03:13:23.866Z,16.57
2019-02-06T03:15:52.639Z,16.07
2019-02-06T03:18:21.357Z,16.43
2019-02-06T03:20:50.074Z,15.87
2019-02-06T03:23:18.923Z,18.10
2019-02-06T03:25:47.745Z,15.50
2019-02-06T03:28:16.462Z,14.90
2019-02-06T03:30:45.287Z,16.37
2019-02-06T03:33:14.077Z,16.97
2019-02-06T03:35:43.303Z,16.20
2019-02-06T03:38:12.185Z,16.43
2019-02-06T03:40:41.112Z,16.77
2019-02-06T03:43:09.836Z,18.00
2019-02-06T03:45:38.701Z,17.33
2019-02-06T03:48:07.454Z,16.23
2019-02-06T03:50:36.167Z,18.17
2019-02-06T03:53:04.948Z,17.47
2019-02-06T03:55:33.984Z,24.67
2019-02-06T03:58:02.782Z,28.97
2019-02-06T04:00:31.660Z,28.37
2019-02-06T04:03:00.384Z,21.00
2019-02-06T04:05:29.112Z,19.43
2019-02-06T04:07:57.885Z,18.53
2019-02-06T04:10:26.756Z,19.70
2019-02-06T04:13:01.218Z,33.87
2019-02-06T04:15:30.283Z,33.37
2019-02-06T04:17:58.995Z,29.73
2019-02-06T04:20:27.711Z,27.60
2019-02-06T04:23:01.243Z,27.47
2019-02-06T04:25:27.765Z,25.00
2019-02-06T04:27:56.460Z,22.70
2019-02-06T04:30:25.330Z,24.53
2019-02-06T04:32:54.308Z,27.10
2019-02-06T04:35:23.015Z,27.17
2019-02-06T04:37:51.806Z,27.30
2019-02-06T04:40:21.120Z,23.83
2019-02-06T04:42:50.274Z,24.77
2019-02-06T04:45:20.039Z,24.17
2019-02-06T04:47:48.862Z,23.67
2019-02-06T04:50:18.764Z,27.10
2019-02-06T04:52:47.848Z,28.30
2019-02-06T04:55:17.852Z,26.33
2019-02-06T04:57:46.950Z,28.90
2019-02-06T05:00:26.770Z,43.63
2019-02-06T05:02:55.494Z,34.30
2019-02-06T05:05:24.227Z,33.03
2019-02-06T05:07:53.109Z,31.03
2019-02-06T05:10:21.864Z,29.60
2019-02-06T05:12:50.587Z,24.90
2019-02-06T05:15:20.260Z,25.07
2019-02-06T05:17:49.004Z,21.83
2019-02-06T05:20:26.825Z,23.27
2019-02-06T05:23:00.118Z,21.70
2019-02-06T05:25:32.108Z,21.57
2019-02-06T05:28:04.086Z,22.43
2019-02-06T05:30:32.826Z,19.10
2019-02-06T05:33:01.551Z,16.27
2019-02-06T05:35:30.783Z,15.67
2019-02-06T05:38:00.106Z,14.97
2019-02-06T05:40:29.114Z,15.93
2019-02-06T05:42:57.998Z,16.03
2019-02-06T05:45:26.723Z,17.60
2019-02-06T05:47:55.452Z,16.23
2019-02-06T05:50:24.217Z,16.20
2019-02-06T05:52:52.940Z,16.83
2019-02-06T05:55:21.673Z,17.53
2019-02-06T05:57:50.480Z,15.73
2019-02-06T06:00:31.694Z,16.77
2019-02-06T06:03:00.668Z,18.40
2019-02-06T06:05:29.379Z,17.67
2019-02-06T06:07:58.109Z,16.43
2019-02-06T06:10:27.167Z,17.03
2019-02-06T06:12:55.892Z,16.53
2019-02-06T06:15:24.618Z,18.27
2019-02-06T06:17:53.711Z,17.47
2019-02-06T06:20:22.453Z,17.47
2019-02-06T06:22:51.173Z,16.77
2019-02-06T06:25:21.092Z,17.90
2019-02-06T06:27:50.249Z,18.00
2019-02-06T06:30:20.774Z,18.90
2019-02-06T06:32:49.623Z,26.17
2019-02-06T06:35:18.425Z,25.33
2019-02-06T06:37:57.540Z,35.20
2019-02-06T06:40:22.760Z,28.80
2019-02-06T06:42:51.785Z,20.27
2019-02-06T06:45:25.863Z,20.00
2019-02-06T06:47:54.729Z,20.10
2019-02-06T06:50:25.363Z,21.37
2019-02-06T06:52:54.086Z,20.83
2019-02-06T06:55:23.818Z,20.67
2019-02-06T06:57:52.511Z,20.33
2019-02-06T07:00:30.023Z,20.83
2019-02-06T07:02:59.145Z,18.83
2019-02-06T07:05:27.962Z,20.00
2019-02-06T07:08:08.834Z,18.80
2019-02-06T07:10:27.390Z,18.73
2019-02-06T07:12:56.109Z,19.30
2019-02-06T07:15:30.520Z,18.63
2019-02-06T07:17:59.237Z,18.90
2019-02-06T07:20:27.965Z,20.30
2019-02-06T07:22:56.764Z,19.10
2019-02-06T07:25:25.492Z,20.40
2019-02-06T07:27:54.316Z,20.73
2019-02-06T07:30:35.022Z,19.00
2019-02-06T07:33:03.750Z,19.53
2019-02-06T07:35:32.580Z,19.00
2019-02-06T07:38:02.058Z,20.30
2019-02-06T07:40:30.789Z,20.50
2019-02-06T07:42:59.542Z,20.03
2019-02-06T07:45:28.430Z,19.10
2019-02-06T07:47:57.182Z,19.80
2019-02-06T07:50:28.605Z,21.63
2019-02-06T07:52:57.958Z,19.67
2019-02-06T07:55:26.685Z,20.83
2019-02-06T07:57:55.515Z,18.73
2019-02-06T08:00:24.613Z,17.67
2019-02-06T08:02:54.636Z,19.03
2019-02-06T08:05:23.483Z,21.43
2019-02-06T08:07:52.244Z,20.53
2019-02-06T08:10:26.688Z,19.30
2019-02-06T08:12:55.552Z,18.23
2019-02-06T08:15:24.537Z,18.47
2019-02-06T08:17:53.269Z,18.77
2019-02-06T08:20:23.247Z,18.50
2019-02-06T08:22:53.029Z,17.70
2019-02-06T08:25:23.257Z,19.07
2019-02-06T08:27:52.087Z,18.53
2019-02-06T08:30:23.859Z,18.20
2019-02-06T08:32:52.684Z,19.90
2019-02-06T08:35:21.405Z,19.83
2019-02-06T08:37:51.390Z,19.70
2019-02-06T08:40:25.369Z,18.63
2019-02-06T08:42:54.189Z,20.07
2019-02-06T08:45:23.070Z,18.43
2019-02-06T08:47:52.101Z,19.43
2019-02-06T08:50:24.612Z,19.47
2019-02-06T08:52:53.700Z,18.17
2019-02-06T08:55:25.125Z,18.23
2019-02-06T08:57:53.943Z,18.60
2019-02-06T09:00:31.390Z,18.00
2019-02-06T09:03:00.625Z,19.93
2019-02-06T09:05:29.829Z,19.40
2019-02-06T09:07:58.635Z,16.90
2019-02-06T09:10:29.064Z,17.47
2019-02-06T09:12:58.398Z,17.97
2019-02-06T09:15:27.750Z,16.57
2019-02-06T09:17:56.661Z,16.40
2019-02-06T09:20:26.975Z,18.10
2019-02-06T09:22:56.048Z,17.03
2019-02-06T09:25:26.283Z,16.87
2019-02-06T09:27:55.103Z,16.57
2019-02-06T09:30:29.118Z,15.73
2019-02-06T09:32:58.045Z,15.77
2019-02-06T09:35:27.243Z,15.10
2019-02-06T09:37:56.031Z,15.80
2019-02-06T09:40:27.041Z,15.50
2019-02-06T09:42:55.867Z,15.10
2019-02-06T09:45:24.641Z,15.80
2019-02-06T09:47:53.373Z,16.40
2019-02-06T09:50:25.075Z,17.30
2019-02-06T09:52:54.147Z,16.53
2019-02-06T09:55:22.874Z,18.00
2019-02-06T09:57:51.605Z,20.50
2019-02-06T10:00:32.016Z,28.20
2019-02-06T10:03:01.423Z,19.03
2019-02-06T10:05:30.297Z,23.23
2019-02-06T10:07:59.514Z,19.97
2019-02-06T10:10:29.040Z,18.93
2019-02-06T10:12:57.775Z,18.77
2019-02-06T10:15:31.917Z,21.57
2019-02-06T10:18:01.120Z,19.90
2019-02-06T10:20:32.760Z,18.50
2019-02-06T10:23:01.717Z,18.43
2019-02-06T10:25:30.847Z,16.63
2019-02-06T10:27:59.570Z,17.63
2019-02-06T10:30:31.258Z,18.33
2019-02-06T10:33:00.568Z,16.90
2019-02-06T10:35:29.304Z,17.50
2019-02-06T10:37:58.293Z,18.03
2019-02-06T10:40:27.426Z,15.97
2019-02-06T10:42:56.157Z,17.00
2019-02-06T10:45:25.068Z,14.17
2019-02-06T10:47:54.375Z,14.57
2019-02-06T10:50:29.106Z,15.30
2019-02-06T10:52:58.068Z,14.70
2019-02-06T10:55:27.081Z,14.03
2019-02-06T10:57:55.914Z,14.23
2019-02-06T11:00:39.913Z,13.20
2019-02-06T11:03:08.640Z,13.33
2019-02-06T11:05:37.465Z,13.30
2019-02-06T11:08:06.671Z,14.50
2019-02-06T11:10:35.384Z,13.40
2019-02-06T11:13:04.911Z,12.20
2019-02-06T11:15:34.260Z,11.07
2019-02-06T11:18:02.986Z,11.30
2019-02-06T11:20:34.913Z,10.63
2019-02-06T11:23:03.893Z,10.77
2019-02-06T11:25:32.731Z,11.03
2019-02-06T11:28:01.468Z,12.10
2019-02-06T11:30:33.531Z,11.33
2019-02-06T11:33:02.349Z,10.37
2019-02-06T11:35:31.087Z,11.10
2019-02-06T11:37:59.975Z,11.07
2019-02-06T11:40:28.703Z,11.30
2019-02-06T11:42:57.528Z,11.07
2019-02-06T11:45:33.940Z,12.13
2019-02-06T11:48:02.778Z,13.33
2019-02-06T11:50:39.126Z,13.93
2019-02-06T11:53:09.571Z,14.20
2019-02-06T11:55:38.288Z,14.60
2019-02-06T11:58:08.087Z,14.70
2019-02-06T12:00:42.961Z,13.03
2019-02-06T12:03:11.758Z,13.23
2019-02-06T12:05:40.495Z,14.07
2019-02-06T12:08:12.287Z,13.37
2019-02-06T12:10:39.816Z,12.80
2019-02-06T12:13:09.133Z,12.90
2019-02-06T12:15:37.973Z,12.17
2019-02-06T12:18:07.743Z,11.20
2019-02-06T12:20:37.290Z,10.97
2019-02-06T12:23:06.380Z,11.03
2019-02-06T12:25:35.623Z,10.43
2019-02-06T12:28:05.760Z,9.73
2019-02-06T12:30:42.064Z,10.53
2019-02-06T12:33:10.792Z,9.60
2019-02-06T12:35:39.523Z,10.17
2019-02-06T12:38:08.640Z,11.13
2019-02-06T12:40:37.486Z,11.60
2019-02-06T12:43:10.531Z,10.90
2019-02-06T12:45:40.000Z,9.67
2019-02-06T12:48:08.978Z,10.10
2019-02-06T12:50:37.705Z,10.03
2019-02-06T12:53:07.082Z,10.23
2019-02-06T12:55:40.680Z,10.00
2019-02-06T12:58:10.129Z,9.80
2019-02-06T13:00:42.073Z,9.20
2019-02-06T13:03:10.825Z,9.57
2019-02-06T13:05:39.554Z,10.00
2019-02-06T13:08:08.583Z,11.37
2019-02-06T13:10:37.305Z,10.10
2019-02-06T13:13:06.128Z,10.40
2019-02-06T13:15:41.361Z,11.53
2019-02-06T13:18:10.084Z,14.10
2019-02-06T13:20:39.769Z,11.07
2019-02-06T13:23:08.739Z,11.00
2019-02-06T13:25:37.476Z,10.57
2019-02-06T13:28:07.447Z,11.77
2019-02-06T13:30:38.080Z,15.40
2019-02-06T13:33:11.447Z,15.20
2019-02-06T13:35:38.763Z,13.27
2019-02-06T13:38:07.640Z,14.30
2019-02-06T13:40:45.174Z,14.33
2019-02-06T13:43:07.126Z,12.73
2019-02-06T13:45:39.104Z,14.63
2019-02-06T13:48:07.939Z,16.23
2019-02-06T13:50:36.983Z,13.93
2019-02-06T13:53:05.984Z,17.63
2019-02-06T13:55:34.810Z,20.80
2019-02-06T13:58:03.532Z,24.27
2019-02-06T14:00:38.146Z,21.03
2019-02-06T14:03:07.526Z,21.43
2019-02-06T14:05:36.454Z,27.40
2019-02-06T14:08:10.833Z,19.67
2019-02-06T14:10:39.768Z,17.50
2019-02-06T14:13:08.502Z,13.00
2019-02-06T14:15:40.203Z,22.83
2019-02-06T14:18:09.038Z,23.67
2019-02-06T14:20:38.075Z,25.17
2019-02-06T14:23:14.488Z,14.53
2019-02-06T14:25:46.504Z,20.33
2019-02-06T14:28:20.887Z,21.80
2019-02-06T14:31:09.211Z,19.27
2019-02-06T14:33:41.126Z,20.57
2019-02-06T14:36:38.253Z,19.57
2019-02-06T14:39:20.098Z,47.40
2019-02-06T14:41:58.041Z,29.57
2019-02-06T14:44:41.715Z,31.07
2019-02-06T14:47:28.669Z,42.77
2019-02-06T14:50:04.538Z,38.37
2019-02-06T14:52:59.014Z,45.40
2019-02-06T14:55:47.209Z,70.57
2019-02-06T14:58:35.112Z,60.43
2019-02-06T15:01:12.963Z,36.43
2019-02-06T15:03:53.325Z,47.47
2019-02-06T15:06:39.470Z,40.03
2019-02-06T15:09:22.116Z,42.80
2019-02-06T15:12:00.868Z,39.83
2019-02-06T15:14:56.460Z,41.40
2019-02-06T15:17:47.676Z,53.37
2019-02-06T15:20:27.608Z,40.00
2019-02-06T15:22:59.782Z,28.37
2019-02-06T15:25:49.276Z,42.33
2019-02-06T15:28:46.713Z,34.13
2019-02-06T15:31:41.347Z,68.03
2019-02-06T15:34:31.419Z,48.67
2019-02-06T15:37:06.091Z,52.07
2019-02-06T15:39:55.637Z,31.50
2019-02-06T15:42:43.446Z,24.80
2019-02-06T15:45:21.016Z,21.17
2019-02-06T15:47:52.655Z,37.67
2019-02-06T15:50:46.709Z,50.17
2019-02-06T15:53:21.112Z,35.77
2019-02-06T15:55:55.793Z,43.03
2019-02-06T15:58:36.400Z,42.80
2019-02-06T16:01:16.825Z,30.90
2019-02-06T16:04:19.982Z,47.57
2019-02-06T16:07:14.208Z,48.33
2019-02-06T16:10:14.184Z,38.90
2019-02-06T16:13:10.299Z,35.50
2019-02-06T16:15:47.889Z,53.33
2019-02-06T16:18:25.323Z,76.40
2019-02-06T16:21:13.477Z,73.40
2019-02-06T16:23:45.259Z,63.20
2019-02-06T16:26:22.712Z,61.60
2019-02-06T16:29:14.135Z,63.23
2019-02-06T16:31:54.847Z,144.17
2019-02-06T16:34:35.284Z,126.47
2019-02-06T16:37:22.150Z,120.63
2019-02-06T16:39:56.837Z,64.97
2019-02-06T16:42:34.167Z,55.70
2019-02-06T16:45:17.630Z,54.37
2019-02-06T16:48:07.115Z,57.87
2019-02-06T16:50:38.997Z,78.23
2019-02-06T16:53:28.561Z,74.67
2019-02-06T16:56:06.748Z,73.73
2019-02-06T16:59:07.187Z,76.80
2019-02-06T17:01:42.270Z,52.73
2019-02-06T17:04:48.331Z,58.27
2019-02-06T17:07:25.868Z,51.87
2019-02-06T17:10:06.775Z,53.37
2019-02-06T17:12:47.784Z,47.70
2019-02-06T17:15:37.377Z,41.57
2019-02-06T17:18:15.170Z,41.00
2019-02-06T17:21:08.554Z,47.57
2019-02-06T17:24:04.461Z,40.07
2019-02-06T17:26:38.828Z,40.20
2019-02-06T17:29:16.548Z,35.77
2019-02-06T17:31:53.048Z,38.10
2019-02-06T17:34:39.528Z,37.93
2019-02-06T17:37:33.854Z,50.03
2019-02-06T17:40:17.846Z,39.60
2019-02-06T17:43:15.164Z,40.60
2019-02-06T17:45:52.745Z,36.37
2019-02-06T17:48:27.043Z,38.20
2019-02-06T17:51:24.349Z,33.80
2019-02-06T17:54:04.947Z,39.77
2019-02-06T17:56:34.118Z,35.03
2019-02-06T17:59:02.849Z,21.37
2019-02-06T18:01:32.055Z,19.50
2019-02-06T18:04:01.027Z,25.63
2019-02-06T18:06:29.753Z,38.20
2019-02-06T18:08:58.485Z,30.63
2019-02-06T18:11:27.630Z,40.63
2019-02-06T18:13:56.357Z,34.73
2019-02-06T18:16:25.301Z,37.70
2019-02-06T18:18:54.189Z,33.13
2019-02-06T18:21:22.926Z,37.20
2019-02-06T18:23:51.657Z,30.40
2019-02-06T18:26:20.546Z,22.23
2019-02-06T18:28:49.548Z,22.83
2019-02-06T18:31:18.418Z,16.80
2019-02-06T18:33:47.185Z,23.17
2019-02-06T18:36:16.019Z,26.87
2019-02-06T18:38:46.896Z,24.63
2019-02-06T18:41:15.850Z,25.87
2019-02-06T18:43:44.576Z,21.60
2019-02-06T18:46:13.480Z,22.27
2019-02-06T18:48:42.597Z,22.83
2019-02-06T18:51:11.322Z,36.50
2019-02-06T18:53:40.149Z,23.87
2019-02-06T18:56:09.127Z,21.40
2019-02-06T18:58:37.972Z,25.47
2019-02-06T19:01:09.821Z,22.73
2019-02-06T19:03:42.093Z,19.77
2019-02-06T19:06:11.253Z,17.57
2019-02-06T19:08:40.296Z,24.63
2019-02-06T19:11:09.244Z,22.20
2019-02-06T19:13:38.003Z,28.70
2019-02-06T19:16:06.829Z,26.13
2019-02-06T19:18:37.292Z,30.60
2019-02-06T19:21:06.077Z,31.70
2019-02-06T19:23:35.282Z,30.20
2019-02-06T19:26:04.121Z,27.77
2019-02-06T19:28:32.865Z,15.73
2019-02-06T19:31:01.593Z,16.00
2019-02-06T19:33:30.346Z,16.80
2019-02-06T19:35:59.077Z,23.63
2019-02-06T19:38:27.811Z,28.33
2019-02-06T19:40:56.729Z,29.87
2019-02-06T19:43:25.457Z,26.30
2019-02-06T19:45:54.184Z,23.17
2019-02-06T19:48:23.490Z,27.10
2019-02-06T19:50:52.221Z,19.50
2019-02-06T19:53:20.954Z,14.43
2019-02-06T19:55:49.836Z,17.40
2019-02-06T19:58:18.572Z,18.57
2019-02-06T20:00:47.684Z,21.00
2019-02-06T20:03:16.567Z,20.20
2019-02-06T20:05:45.296Z,46.67
2019-02-06T20:08:14.533Z,71.20
2019-02-06T20:10:46.312Z,61.13
2019-02-06T20:13:15.085Z,60.27
2019-02-06T20:15:43.967Z,20.27
2019-02-06T20:18:13.849Z,16.37
2019-02-06T20:20:42.585Z,13.93
2019-02-06T20:23:11.409Z,14.80
2019-02-06T20:25:40.286Z,19.60
2019-02-06T20:28:09.021Z,18.57
2019-02-06T20:30:37.747Z,17.07
2019-02-06T20:33:06.544Z,18.70
2019-02-06T20:35:35.764Z,16.83
2019-02-06T20:38:04.591Z,16.40
2019-02-06T20:40:35.751Z,14.87
2019-02-06T20:43:04.876Z,16.30
2019-02-06T20:45:33.603Z,16.93
2019-02-06T20:48:02.479Z,17.50
2019-02-06T20:50:33.653Z,23.13
2019-02-06T20:53:02.758Z,17.17
2019-02-06T20:55:31.976Z,16.93
2019-02-06T20:58:00.713Z,17.37
2019-02-06T21:00:42.685Z,16.13
2019-02-06T21:03:11.414Z,12.73
2019-02-06T21:05:40.713Z,15.07
2019-02-06T21:08:09.613Z,13.53
2019-02-06T21:10:38.435Z,14.17
2019-02-06T21:13:07.356Z,14.60
2019-02-06T21:15:36.267Z,15.73
2019-02-06T21:18:05.736Z,15.30
2019-02-06T21:20:34.462Z,14.47
2019-02-06T21:23:03.847Z,14.53
2019-02-06T21:25:32.579Z,19.63
2019-02-06T21:28:01.306Z,19.17
2019-02-06T21:30:38.522Z,19.13
2019-02-06T21:33:07.246Z,20.27
2019-02-06T21:35:35.972Z,16.57
2019-02-06T21:38:05.096Z,12.53
2019-02-06T21:40:37.873Z,11.83
2019-02-06T21:43:07.716Z,13.27
2019-02-06T21:45:36.817Z,13.13
2019-02-06T21:48:06.539Z,11.00
2019-02-06T21:50:35.644Z,10.47
2019-02-06T21:53:05.074Z,16.50
2019-02-06T21:55:33.805Z,15.63
2019-02-06T21:58:02.633Z,13.50
2019-02-06T22:00:40.364Z,11.30
2019-02-06T22:03:10.800Z,12.13
2019-02-06T22:05:39.819Z,11.47
2019-02-06T22:08:09.170Z,11.20
2019-02-06T22:10:37.899Z,10.70
2019-02-06T22:13:06.637Z,10.67
2019-02-06T22:15:35.536Z,12.20
2019-02-06T22:18:04.266Z,16.00
2019-02-06T22:20:32.999Z,18.67
2019-02-06T22:23:01.801Z,20.37
2019-02-06T22:25:30.517Z,19.17
2019-02-06T22:27:59.340Z,19.20
2019-02-06T22:30:30.783Z,19.23
2019-02-06T22:32:59.701Z,25.23
2019-02-06T22:35:28.539Z,103.93
2019-02-06T22:37:58.094Z,107.40
2019-02-06T22:40:27.243Z,75.13
2019-02-06T22:42:56.034Z,29.90
2019-02-06T22:45:26.798Z,29.93
2019-02-06T22:47:55.627Z,25.63
2019-02-06T22:50:26.656Z,24.27
2019-02-06T22:52:55.657Z,23.43
2019-02-06T22:55:24.386Z,25.13
2019-02-06T22:57:53.219Z,28.63
2019-02-06T23:00:49.386Z,56.10
2019-02-06T23:03:24.004Z,41.37
2019-02-06T23:05:52.735Z,24.30
2019-02-06T23:08:21.546Z,14.43
2019-02-06T23:10:50.272Z,17.37
2019-02-06T23:13:19.376Z,21.87
2019-02-06T23:15:48.255Z,16.80
2019-02-06T23:18:17.490Z,16.80
2019-02-06T23:20:46.313Z,27.63
2019-02-06T23:23:15.509Z,28.47
2019-02-06T23:25:44.248Z,15.77
2019-02-06T23:28:13.264Z,14.57
2019-02-06T23:30:42.157Z,12.73
2019-02-06T23:33:10.892Z,12.67
2019-02-06T23:35:41.069Z,11.57
2019-02-06T23:38:09.959Z,12.07
2019-02-06T23:40:38.696Z,12.87
2019-02-06T23:43:07.705Z,12.87
2019-02-06T23:45:36.549Z,12.63
2019-02-06T23:48:05.389Z,12.73
2019-02-06T23:50:34.121Z,13.23
2019-02-06T23:53:02.980Z,13.30
2019-02-06T23:55:31.722Z,14.97
2019-02-06T23:58:00.733Z,13.43
